createdAt,value
2018-11-01T00:02:12.701Z,3.60
2018-11-01T00:04:40.877Z,3.00
2018-11-01T00:07:09.013Z,2.53
2018-11-01T00:09:37.168Z,3.83
2018-11-01T00:12:05.273Z,2.70
2018-11-01T00:14:33.412Z,3.40
2018-11-01T00:17:01.564Z,3.60
2018-11-01T00:19:29.701Z,2.60
2018-11-01T00:21:57.806Z,3.10
2018-11-01T00:24:25.956Z,3.03
2018-11-01T00:26:54.174Z,3.25
2018-11-01T00:29:22.301Z,3.22
2018-11-01T00:31:50.469Z,3.35
2018-11-01T00:34:18.654Z,3.58
2018-11-01T00:36:46.804Z,3.50
2018-11-01T00:39:14.964Z,3.20
2018-11-01T00:41:43.125Z,2.70
2018-11-01T00:44:11.438Z,3.23
2018-11-01T00:46:39.553Z,3.07
2018-11-01T00:49:07.698Z,3.67
2018-11-01T00:51:35.826Z,3.03
2018-11-01T00:54:04.003Z,3.03
2018-11-01T00:56:32.168Z,3.07
2018-11-01T00:59:00.411Z,2.77
2018-11-01T01:01:28.537Z,3.20
2018-11-01T01:03:56.688Z,4.00
2018-11-01T01:06:24.833Z,3.30
2018-11-01T01:08:52.965Z,3.40
2018-11-01T01:11:21.077Z,3.43
2018-11-01T01:13:49.227Z,3.93
2018-11-01T01:16:17.370Z,3.60
2018-11-01T01:18:45.607Z,3.13
2018-11-01T01:21:13.677Z,3.53
2018-11-01T01:23:42.081Z,3.20
2018-11-01T01:26:10.214Z,3.00
2018-11-01T01:28:38.349Z,3.47
2018-11-01T01:31:06.457Z,3.57
2018-11-01T01:33:34.639Z,2.90
2018-11-01T01:36:02.792Z,3.27
2018-11-01T01:38:30.895Z,3.67
2018-11-01T01:40:59.050Z,3.47
2018-11-01T01:43:27.178Z,3.67
2018-11-01T01:45:55.313Z,3.80
2018-11-01T01:48:23.514Z,3.27
2018-11-01T01:50:51.881Z,3.10
2018-11-01T01:53:19.851Z,3.42
2018-11-01T01:55:48.006Z,3.57
2018-11-01T01:58:16.081Z,3.07
2018-11-01T02:00:44.169Z,3.30
2018-11-01T02:03:12.272Z,3.87
2018-11-01T02:05:40.404Z,3.20
2018-11-01T02:08:08.533Z,3.47
2018-11-01T02:10:36.639Z,3.80
2018-11-01T02:13:04.973Z,3.87
2018-11-01T02:15:33.076Z,3.90
2018-11-01T02:18:01.177Z,3.80
2018-11-01T02:20:29.264Z,3.27
2018-11-01T02:22:57.336Z,3.87
2018-11-01T02:25:25.440Z,3.62
2018-11-01T02:27:58.931Z,4.10
2018-11-01T02:30:27.030Z,3.42
2018-11-01T02:32:55.085Z,3.43
2018-11-01T02:35:23.196Z,3.47
2018-11-01T02:37:51.389Z,3.77
2018-11-01T02:40:19.418Z,3.60
2018-11-01T02:42:47.545Z,3.90
2018-11-01T02:45:16.120Z,4.13
2018-11-01T02:47:44.244Z,3.70
2018-11-01T02:50:13.213Z,3.90
2018-11-01T02:52:41.315Z,3.70
2018-11-01T02:55:09.964Z,3.60
2018-11-01T02:57:38.069Z,3.73
2018-11-01T03:00:08.349Z,4.08
2018-11-01T03:02:36.462Z,3.10
2018-11-01T03:05:04.932Z,3.60
2018-11-01T03:07:33.041Z,3.80
2018-11-01T03:10:01.125Z,3.63
2018-11-01T03:12:29.234Z,4.07
2018-11-01T03:14:57.333Z,4.33
2018-11-01T03:17:25.408Z,4.40
2018-11-01T03:19:53.520Z,4.00
2018-11-01T03:22:21.643Z,3.70
2018-11-01T03:24:49.716Z,4.40
2018-11-01T03:27:17.816Z,3.97
2018-11-01T03:29:45.932Z,4.13
2018-11-01T03:32:14.061Z,3.63
2018-11-01T03:34:42.205Z,4.13
2018-11-01T03:37:10.339Z,3.57
2018-11-01T03:39:38.420Z,3.70
2018-11-01T03:42:06.495Z,3.87
2018-11-01T03:44:34.623Z,3.93
2018-11-01T03:47:02.721Z,3.57
2018-11-01T03:49:30.856Z,4.03
2018-11-01T03:51:59.054Z,4.20
2018-11-01T03:54:27.062Z,4.33
2018-11-01T03:56:55.195Z,4.43
2018-11-01T03:59:23.287Z,3.80
2018-11-01T04:01:51.625Z,4.40
2018-11-01T04:04:19.766Z,4.47
2018-11-01T04:06:47.847Z,4.17
2018-11-01T04:09:15.935Z,4.60
2018-11-01T04:11:44.048Z,4.37
2018-11-01T04:14:12.183Z,3.70
2018-11-01T04:16:40.340Z,5.12
2018-11-01T04:19:08.402Z,4.70
2018-11-01T04:21:36.769Z,3.90
2018-11-01T04:24:05.141Z,4.30
2018-11-01T04:26:33.228Z,4.00
2018-11-01T04:29:01.386Z,3.90
2018-11-01T04:31:29.399Z,3.60
2018-11-01T04:33:57.592Z,5.30
2018-11-01T04:36:26.032Z,3.70
2018-11-01T04:38:54.404Z,3.63
2018-11-01T04:41:22.529Z,4.50
2018-11-01T04:43:51.410Z,4.55
2018-11-01T04:46:19.518Z,3.97
2018-11-01T04:48:47.591Z,4.30
2018-11-01T04:51:16.512Z,4.23
2018-11-01T04:53:44.615Z,4.60
2018-11-01T04:56:12.725Z,3.83
2018-11-01T04:58:40.876Z,3.73
2018-11-01T05:01:09.017Z,4.03
2018-11-01T05:03:37.183Z,3.90
2018-11-01T05:06:05.612Z,4.43
2018-11-01T05:08:33.721Z,4.00
2018-11-01T05:11:01.800Z,4.70
2018-11-01T05:13:29.902Z,4.27
2018-11-01T05:15:57.995Z,3.97
2018-11-01T05:18:26.139Z,3.83
2018-11-01T05:20:54.231Z,4.03
2018-11-01T05:23:22.342Z,4.40
2018-11-01T05:25:50.507Z,4.07
2018-11-01T05:28:18.545Z,4.43
2018-11-01T05:30:46.673Z,4.00
2018-11-01T05:33:14.970Z,4.70
2018-11-01T05:35:43.128Z,3.90
2018-11-01T05:38:11.244Z,4.47
2018-11-01T05:40:39.358Z,4.50
2018-11-01T05:43:07.420Z,4.67
2018-11-01T05:45:35.538Z,4.33
2018-11-01T05:48:03.623Z,4.57
2018-11-01T05:50:31.696Z,4.90
2018-11-01T05:52:59.796Z,4.47
2018-11-01T05:55:27.920Z,4.80
2018-11-01T05:57:55.997Z,4.47
2018-11-01T06:00:30.879Z,4.83
2018-11-01T06:03:00.009Z,4.20
2018-11-01T06:05:28.131Z,5.40
2018-11-01T06:07:57.704Z,4.60
2018-11-01T06:10:25.798Z,4.92
2018-11-01T06:12:53.878Z,4.75
2018-11-01T06:15:22.257Z,4.45
2018-11-01T06:17:50.400Z,5.27
2018-11-01T06:20:18.481Z,5.10
2018-11-01T06:22:46.577Z,5.58
2018-11-01T06:25:14.719Z,5.07
2018-11-01T06:27:42.817Z,5.20
2018-11-01T06:30:13.535Z,4.63
2018-11-01T06:32:41.691Z,5.13
2018-11-01T06:35:19.863Z,5.50
2018-11-01T06:37:47.937Z,5.17
2018-11-01T06:40:16.078Z,5.30
2018-11-01T06:42:44.377Z,5.20
2018-11-01T06:45:12.544Z,5.33
2018-11-01T06:47:40.834Z,5.40
2018-11-01T06:50:09.226Z,5.27
2018-11-01T06:52:37.335Z,5.50
2018-11-01T06:55:07.428Z,6.97
2018-11-01T06:57:35.652Z,4.95
2018-11-01T07:00:03.959Z,5.87
2018-11-01T07:02:32.406Z,6.20
2018-11-01T07:05:00.513Z,5.53
2018-11-01T07:07:28.721Z,5.50
2018-11-01T07:09:56.790Z,6.42
2018-11-01T07:12:24.952Z,7.05
2018-11-01T07:14:53.070Z,5.63
2018-11-01T07:17:21.893Z,5.60
2018-11-01T07:19:50.050Z,5.10
2018-11-01T07:22:18.784Z,5.77
2018-11-01T07:24:46.897Z,5.65
2018-11-01T07:27:14.989Z,5.80
2018-11-01T07:29:43.168Z,5.20
2018-11-01T07:32:11.252Z,6.30
2018-11-01T07:34:39.437Z,6.50
2018-11-01T07:37:08.022Z,6.60
2018-11-01T07:39:36.147Z,6.70
2018-11-01T07:42:04.373Z,7.10
2018-11-01T07:44:32.796Z,6.70
2018-11-01T07:47:01.025Z,7.28
2018-11-01T07:49:29.654Z,7.03
2018-11-01T07:51:57.808Z,6.53
2018-11-01T07:54:26.017Z,7.83
2018-11-01T07:56:54.223Z,7.47
2018-11-01T07:59:22.749Z,7.08
2018-11-01T08:01:50.892Z,7.37
2018-11-01T08:04:18.994Z,8.00
2018-11-01T08:06:47.534Z,8.10
2018-11-01T08:09:15.619Z,7.60
2018-11-01T08:11:44.084Z,8.00
2018-11-01T08:14:12.126Z,8.47
2018-11-01T08:16:40.253Z,7.80
2018-11-01T08:19:08.405Z,8.20
2018-11-01T08:21:36.581Z,8.08
2018-11-01T08:24:05.392Z,8.97
2018-11-01T08:26:33.668Z,8.40
2018-11-01T08:29:01.768Z,8.07
2018-11-01T08:31:29.864Z,8.40
2018-11-01T08:33:57.996Z,8.17
2018-11-01T08:36:26.867Z,8.83
2018-11-01T08:38:55.168Z,8.07
2018-11-01T08:41:23.476Z,9.60
2018-11-01T08:43:51.590Z,8.37
2018-11-01T08:46:20.111Z,8.70
2018-11-01T08:48:48.288Z,7.60
2018-11-01T08:51:16.418Z,9.07
2018-11-01T08:53:44.568Z,8.43
2018-11-01T08:56:12.699Z,8.13
2018-11-01T08:58:40.799Z,8.80
2018-11-01T09:01:08.960Z,8.55
2018-11-01T09:03:37.217Z,8.98
2018-11-01T09:06:05.942Z,8.93
2018-11-01T09:08:34.147Z,8.60
2018-11-01T09:11:02.797Z,8.50
2018-11-01T09:13:30.925Z,8.37
2018-11-01T09:15:59.079Z,9.53
2018-11-01T09:18:27.208Z,9.70
2018-11-01T09:20:55.377Z,9.57
2018-11-01T09:23:23.471Z,9.70
2018-11-01T09:25:51.646Z,8.80
2018-11-01T09:28:19.724Z,10.70
2018-11-01T09:30:47.865Z,9.17
2018-11-01T09:33:15.952Z,9.47
2018-11-01T09:35:44.105Z,10.87
2018-11-01T09:38:12.203Z,9.57
2018-11-01T09:40:41.080Z,11.48
2018-11-01T09:43:09.240Z,9.83
2018-11-01T09:45:37.419Z,10.30
2018-11-01T09:48:05.547Z,10.77
2018-11-01T09:50:33.656Z,10.88
2018-11-01T09:53:01.777Z,10.35
2018-11-01T09:55:29.922Z,11.10
2018-11-01T09:57:58.129Z,10.00
2018-11-01T10:00:26.288Z,10.97
2018-11-01T10:02:54.411Z,10.33
2018-11-01T10:05:22.561Z,10.13
2018-11-01T10:07:50.704Z,11.20
2018-11-01T10:10:18.833Z,10.77
2018-11-01T10:12:46.961Z,11.20
2018-11-01T10:15:15.215Z,11.20
2018-11-01T10:17:43.630Z,11.63
2018-11-01T10:20:12.658Z,11.20
2018-11-01T10:22:41.174Z,10.83
2018-11-01T10:25:10.470Z,12.20
2018-11-01T10:27:38.713Z,12.05
2018-11-01T10:30:09.714Z,11.43
2018-11-01T10:32:37.885Z,11.38
2018-11-01T10:35:06.420Z,11.60
2018-11-01T10:37:34.665Z,11.07
2018-11-01T10:40:02.950Z,12.30
2018-11-01T10:42:31.098Z,11.53
2018-11-01T10:44:59.255Z,10.87
2018-11-01T10:47:27.414Z,11.53
2018-11-01T10:49:55.488Z,11.47
2018-11-01T10:52:23.587Z,11.33
2018-11-01T10:54:51.785Z,12.30
2018-11-01T10:57:19.912Z,10.80
2018-11-01T10:59:47.996Z,10.80
2018-11-01T11:02:20.281Z,12.00
2018-11-01T11:04:48.448Z,11.83
2018-11-01T11:07:16.566Z,10.77
2018-11-01T11:09:44.703Z,10.50
2018-11-01T11:12:13.050Z,10.30
2018-11-01T11:14:41.198Z,10.95
2018-11-01T11:17:09.248Z,11.57
2018-11-01T11:19:37.361Z,10.63
2018-11-01T11:22:05.491Z,10.43
2018-11-01T11:24:33.627Z,11.63
2018-11-01T11:27:01.766Z,10.77
2018-11-01T11:29:29.851Z,9.83
2018-11-01T11:31:57.964Z,10.60
2018-11-01T11:34:26.182Z,9.93
2018-11-01T11:36:54.286Z,11.10
2018-11-01T11:39:22.389Z,10.60
2018-11-01T11:41:50.475Z,9.30
2018-11-01T11:44:18.580Z,9.97
2018-11-01T11:47:50.169Z,10.55
2018-11-01T11:50:18.291Z,9.77
2018-11-01T11:52:46.611Z,9.20
2018-11-01T11:55:14.761Z,10.75
2018-11-01T11:57:43.117Z,10.50
2018-11-01T12:00:13.436Z,9.70
2018-11-01T12:02:41.711Z,10.33
2018-11-01T12:05:09.873Z,10.50
2018-11-01T12:07:38.272Z,9.70
2018-11-01T12:10:07.407Z,9.50
2018-11-01T12:12:35.595Z,11.68
2018-11-01T12:15:03.668Z,10.00
2018-11-01T12:17:31.748Z,10.50
2018-11-01T12:19:59.897Z,10.70
2018-11-01T12:22:28.113Z,10.40
2018-11-01T12:24:56.164Z,10.43
2018-11-01T12:27:24.244Z,10.35
2018-11-01T12:29:52.350Z,10.90
2018-11-01T12:32:20.455Z,10.95
2018-11-01T12:34:48.600Z,10.63
2018-11-01T12:37:16.740Z,10.90
2018-11-01T12:39:44.821Z,10.63
2018-11-01T12:42:12.956Z,10.23
2018-11-01T12:44:41.070Z,9.93
2018-11-01T12:47:09.188Z,10.63
2018-11-01T12:49:37.336Z,10.63
2018-11-01T12:52:05.549Z,10.53
2018-11-01T12:54:33.909Z,10.90
2018-11-01T12:57:02.036Z,10.80
2018-11-01T12:59:30.216Z,8.67
2018-11-01T13:01:58.299Z,9.60
2018-11-01T13:04:26.430Z,10.13
2018-11-01T13:06:54.492Z,9.50
2018-11-01T13:09:22.571Z,9.33
2018-11-01T13:11:50.683Z,10.47
2018-11-01T13:14:18.779Z,11.10
2018-11-01T13:16:46.880Z,11.05
2018-11-01T13:19:14.980Z,11.05
2018-11-01T13:21:43.073Z,11.03
2018-11-01T13:24:11.188Z,10.97
2018-11-01T13:26:40.211Z,10.50
2018-11-01T13:29:08.395Z,11.93
2018-11-01T13:31:36.445Z,11.57
2018-11-01T13:34:04.599Z,11.03
2018-11-01T13:36:32.718Z,10.73
2018-11-01T13:39:00.837Z,11.70
2018-11-01T13:41:28.980Z,12.57
2018-11-01T13:43:57.097Z,12.30
2018-11-01T13:46:25.256Z,11.20
2018-11-01T13:48:53.368Z,12.40
2018-11-01T13:51:21.562Z,12.40
2018-11-01T13:53:49.685Z,12.44
2018-11-01T13:56:17.847Z,13.50
2018-11-01T13:58:46.078Z,11.47
2018-11-01T14:01:14.218Z,13.20
2018-11-01T14:03:42.583Z,11.63
2018-11-01T14:06:10.714Z,13.07
2018-11-01T14:08:38.796Z,11.87
2018-11-01T14:11:06.927Z,12.90
2018-11-01T14:13:35.125Z,12.47
2018-11-01T14:16:03.027Z,11.53
2018-11-01T14:18:31.103Z,13.23
2018-11-01T14:20:59.217Z,12.25
2018-11-01T14:23:27.328Z,12.10
2018-11-01T14:25:55.409Z,12.00
2018-11-01T14:28:23.505Z,11.70
2018-11-01T14:30:51.584Z,11.60
2018-11-01T14:33:19.724Z,12.67
2018-11-01T14:35:47.800Z,12.53
2018-11-01T14:38:15.969Z,12.23
2018-11-01T14:40:44.064Z,12.88
2018-11-01T14:43:12.241Z,12.98
2018-11-01T14:45:40.321Z,12.65
2018-11-01T14:48:08.403Z,12.65
2018-11-01T14:50:36.569Z,11.53
2018-11-01T14:53:06.152Z,12.53
2018-11-01T14:55:34.845Z,12.00
2018-11-01T14:58:03.202Z,12.90
2018-11-01T15:00:30.321Z,13.90
2018-11-01T15:02:58.387Z,12.82
2018-11-01T15:05:26.533Z,14.55
2018-11-01T15:07:54.621Z,13.43
2018-11-01T15:10:22.684Z,12.67
2018-11-01T15:12:50.861Z,12.90
2018-11-01T15:15:18.973Z,12.90
2018-11-01T15:17:47.065Z,13.40
2018-11-01T15:20:15.158Z,11.83
2018-11-01T15:22:45.088Z,13.20
2018-11-01T15:25:13.154Z,13.20
2018-11-01T15:27:41.220Z,13.57
2018-11-01T15:30:11.283Z,13.30
2018-11-01T15:32:39.328Z,12.80
2018-11-01T15:35:07.597Z,12.87
2018-11-01T15:37:36.043Z,12.63
2018-11-01T15:40:04.652Z,12.97
2018-11-01T15:42:32.605Z,12.90
2018-11-01T15:45:00.713Z,14.50
2018-11-01T15:47:28.824Z,13.00
2018-11-01T15:49:56.922Z,13.63
2018-11-01T15:52:25.024Z,14.40
2018-11-01T15:54:53.197Z,12.77
2018-11-01T15:57:21.332Z,14.27
2018-11-01T15:59:49.439Z,13.83
2018-11-01T16:02:17.649Z,11.37
2018-11-01T16:04:45.707Z,16.00
2018-11-01T16:07:13.824Z,14.47
2018-11-01T16:09:41.937Z,13.80
2018-11-01T16:12:10.021Z,14.90
2018-11-01T16:14:38.150Z,14.00
2018-11-01T16:17:06.468Z,16.70
2018-11-01T16:19:34.592Z,15.50
2018-11-01T16:22:02.676Z,14.47
2018-11-01T16:24:30.816Z,14.93
2018-11-01T16:26:58.970Z,15.20
2018-11-01T16:29:27.860Z,15.32
2018-11-01T16:31:56.042Z,15.63
2018-11-01T16:34:24.143Z,15.50
2018-11-01T16:36:52.253Z,15.70
2018-11-01T16:39:20.339Z,15.48
2018-11-01T16:41:48.500Z,15.20
2018-11-01T16:44:16.670Z,14.60
2018-11-01T16:46:44.747Z,15.93
2018-11-01T16:49:13.242Z,16.43
2018-11-01T16:51:41.378Z,16.13
2018-11-01T16:54:09.520Z,15.63
2018-11-01T16:56:37.665Z,17.20
2018-11-01T16:59:05.977Z,17.07
2018-11-01T17:01:34.104Z,14.50
2018-11-01T17:04:02.223Z,16.07
2018-11-01T17:06:30.354Z,17.10
2018-11-01T17:08:58.473Z,17.40
2018-11-01T17:11:26.552Z,17.03
2018-11-01T17:13:54.675Z,18.00
2018-11-01T17:16:22.757Z,18.60
2018-11-01T17:18:50.867Z,17.20
2018-11-01T17:21:18.969Z,18.87
2018-11-01T17:23:47.081Z,17.48
2018-11-01T17:26:15.172Z,17.60
2018-11-01T17:28:43.285Z,19.07
2018-11-01T17:31:11.401Z,18.03
2018-11-01T17:33:39.881Z,19.13
2018-11-01T17:36:07.979Z,18.30
2018-11-01T17:38:36.086Z,17.73
2018-11-01T17:41:04.229Z,18.53
2018-11-01T17:43:32.369Z,18.53
2018-11-01T17:46:00.582Z,19.40
2018-11-01T17:48:28.683Z,19.83
2018-11-01T17:50:56.853Z,21.23
2018-11-01T17:53:24.943Z,20.07
2018-11-01T17:55:53.080Z,20.10
2018-11-01T17:58:21.200Z,20.30
2018-11-01T18:00:49.304Z,21.23
2018-11-01T18:03:17.448Z,20.80
2018-11-01T18:05:45.696Z,19.97
2018-11-01T18:08:13.818Z,21.40
2018-11-01T18:10:42.025Z,21.03
2018-11-01T18:13:10.184Z,22.10
2018-11-01T18:15:38.473Z,20.70
2018-11-01T18:18:06.609Z,20.97
2018-11-01T18:20:34.720Z,22.80
2018-11-01T18:23:02.897Z,22.10
2018-11-01T18:25:30.957Z,21.10
2018-11-01T18:27:59.506Z,21.45
2018-11-01T18:30:27.687Z,23.52
2018-11-01T18:32:56.099Z,26.50
2018-11-01T18:35:24.144Z,23.60
2018-11-01T18:37:52.317Z,22.55
2018-11-01T18:40:20.343Z,22.70
2018-11-01T18:42:48.485Z,23.55
2018-11-01T18:45:16.650Z,22.13
2018-11-01T18:47:45.170Z,21.23
2018-11-01T18:50:14.758Z,22.10
2018-11-01T18:52:42.908Z,21.80
2018-11-01T18:55:11.854Z,22.07
2018-11-01T18:57:40.105Z,20.70
2018-11-01T19:00:10.358Z,19.77
2018-11-01T19:02:38.557Z,22.63
2018-11-01T19:05:07.348Z,20.97
2018-11-01T19:07:35.472Z,22.20
2018-11-01T19:10:03.680Z,21.00
2018-11-01T19:12:32.056Z,21.37
2018-11-01T19:15:00.265Z,21.20
2018-11-01T19:17:28.405Z,23.80
2018-11-01T19:19:56.623Z,23.53
2018-11-01T19:22:24.976Z,22.67
2018-11-01T19:24:53.195Z,21.70
2018-11-01T19:27:21.701Z,23.77
2018-11-01T19:29:49.720Z,21.23
2018-11-01T19:32:17.842Z,23.50
2018-11-01T19:34:45.980Z,21.48
2018-11-01T19:37:14.046Z,21.80
2018-11-01T19:39:42.207Z,22.47
2018-11-01T19:42:10.345Z,24.47
2018-11-01T19:44:38.556Z,21.93
2018-11-01T19:47:06.704Z,21.20
2018-11-01T19:49:34.924Z,21.37
2018-11-01T19:52:03.113Z,24.07
2018-11-01T19:54:31.351Z,23.47
2018-11-01T19:56:59.492Z,20.43
2018-11-01T19:59:27.720Z,23.17
2018-11-01T20:01:55.872Z,22.30
2018-11-01T20:04:24.152Z,24.80
2018-11-01T20:06:52.156Z,22.23
2018-11-01T20:09:20.860Z,22.27
2018-11-01T20:11:49.057Z,20.87
2018-11-01T20:14:17.173Z,19.73
2018-11-01T20:16:45.331Z,21.43
2018-11-01T20:19:13.525Z,24.47
2018-11-01T20:21:41.704Z,23.00
2018-11-01T20:24:09.676Z,26.77
2018-11-01T20:26:37.796Z,22.05
2018-11-01T20:29:06.457Z,21.45
2018-11-01T20:31:34.583Z,22.00
2018-11-01T20:34:02.688Z,21.33
2018-11-01T20:36:30.803Z,23.57
2018-11-01T20:38:58.922Z,21.87
2018-11-01T20:41:27.049Z,24.10
2018-11-01T20:43:55.204Z,23.47
2018-11-01T20:46:23.388Z,20.07
2018-11-01T20:48:51.639Z,22.50
2018-11-01T20:51:19.739Z,20.63
2018-11-01T20:53:47.883Z,21.62
2018-11-01T20:56:16.029Z,20.67
2018-11-01T20:58:44.149Z,23.57
2018-11-01T21:01:12.716Z,23.50
2018-11-01T21:03:41.864Z,23.00
2018-11-01T21:06:10.051Z,24.67
2018-11-01T21:08:38.225Z,22.73
2018-11-01T21:11:06.500Z,26.87
2018-11-01T21:13:34.632Z,23.93
2018-11-01T21:16:02.768Z,24.13
2018-11-01T21:18:30.894Z,19.97
2018-11-01T21:20:59.011Z,21.60
2018-11-01T21:23:27.105Z,21.90
2018-11-01T21:25:55.380Z,20.70
2018-11-01T21:28:24.122Z,22.77
2018-11-01T21:30:52.294Z,21.20
2018-11-01T21:33:20.507Z,22.00
2018-11-01T21:35:48.872Z,20.80
2018-11-01T21:38:16.893Z,20.13
2018-11-01T21:40:45.025Z,19.17
2018-11-01T21:43:13.253Z,19.47
2018-11-01T21:45:41.388Z,21.37
2018-11-01T21:48:09.600Z,18.37
2018-11-01T21:50:37.743Z,21.20
2018-11-01T21:53:06.206Z,18.73
2018-11-01T21:55:34.261Z,20.50
2018-11-01T21:58:02.364Z,20.60
2018-11-01T22:00:30.454Z,21.20
2018-11-01T22:02:58.591Z,20.70
2018-11-01T22:05:26.744Z,20.20
2018-11-01T22:07:54.859Z,19.93
2018-11-01T22:10:22.999Z,20.40
2018-11-01T22:12:51.133Z,19.50
2018-11-01T22:15:19.247Z,19.57
2018-11-01T22:17:47.421Z,19.37
2018-11-01T22:20:15.643Z,19.55
2018-11-01T22:22:43.845Z,21.42
2018-11-01T22:25:11.975Z,21.30
2018-11-01T22:27:40.204Z,18.60
2018-11-01T22:30:09.681Z,19.98
2018-11-01T22:32:37.859Z,20.00
2018-11-01T22:35:06.053Z,19.90
2018-11-01T22:37:34.146Z,19.82
2018-11-01T22:40:02.250Z,20.13
2018-11-01T22:42:30.372Z,20.33
2018-11-01T22:44:58.475Z,20.43
2018-11-01T22:47:26.572Z,19.27
2018-11-01T22:49:54.704Z,19.67
2018-11-01T22:52:22.857Z,19.30
2018-11-01T22:54:50.962Z,19.65
2018-11-01T22:57:19.073Z,20.35
2018-11-01T22:59:47.253Z,19.90
2018-11-01T23:02:15.303Z,21.87
2018-11-01T23:04:43.432Z,21.60
2018-11-01T23:07:11.576Z,22.85
2018-11-01T23:09:39.707Z,21.48
2018-11-01T23:12:07.856Z,22.73
2018-11-01T23:14:35.992Z,20.43
2018-11-01T23:17:04.144Z,21.23
2018-11-01T23:19:32.275Z,21.17
2018-11-01T23:22:00.397Z,21.70
2018-11-01T23:24:28.501Z,21.70
2018-11-01T23:26:56.656Z,21.85
2018-11-01T23:29:24.744Z,22.47
2018-11-01T23:31:52.837Z,22.80
2018-11-01T23:34:20.976Z,21.63
2018-11-01T23:36:54.412Z,22.17
2018-11-01T23:39:28.029Z,22.80
2018-11-01T23:42:01.478Z,22.87
2018-11-01T23:44:35.089Z,22.13
2018-11-01T23:47:08.644Z,24.20
2018-11-01T23:49:41.128Z,23.67
2018-11-01T23:52:14.017Z,23.80
2018-11-01T23:54:42.278Z,22.63
2018-11-01T23:57:10.400Z,23.50
2018-11-01T23:59:38.591Z,23.92
